createdAt,value
2022-09-27T00:01:10.237Z,44.01
2022-09-27T00:03:38.233Z,44.28
2022-09-27T00:06:31.335Z,44.54
2022-09-27T00:08:59.211Z,44.10
2022-09-27T00:11:34.203Z,43.86
2022-09-27T00:14:02.417Z,43.96
2022-09-27T00:16:34.778Z,43.81
2022-09-27T00:19:06.343Z,43.99
2022-09-27T00:21:34.303Z,43.89
2022-09-27T00:24:01.886Z,43.74
2022-09-27T00:26:29.478Z,43.52
2022-09-27T00:28:57.190Z,43.49
2022-09-27T00:31:29.834Z,43.75
2022-09-27T00:34:00.920Z,43.72
2022-09-27T00:36:29.948Z,43.66
2022-09-27T00:38:59.994Z,43.81
2022-09-27T00:41:34.376Z,43.70
2022-09-27T00:44:05.427Z,43.91
2022-09-27T00:46:48.083Z,43.97
2022-09-27T00:49:51.389Z,43.89
2022-09-27T00:52:42.136Z,44.16
2022-09-27T00:55:18.358Z,44.09
2022-09-27T00:57:47.638Z,44.31
2022-09-27T01:00:16.036Z,44.41
2022-09-27T01:02:51.048Z,44.66
2022-09-27T01:05:21.146Z,44.43
2022-09-27T01:07:48.740Z,44.52
2022-09-27T01:10:17.417Z,44.66
2022-09-27T01:13:05.005Z,44.39
2022-09-27T01:16:17.274Z,44.87
2022-09-27T01:19:03.755Z,44.93
2022-09-27T01:21:51.393Z,44.81
2022-09-27T01:24:42.934Z,45.20
2022-09-27T01:27:13.119Z,44.77
2022-09-27T01:30:11.393Z,44.90
2022-09-27T01:32:56.648Z,44.93
2022-09-27T01:35:51.142Z,44.83
2022-09-27T01:38:21.227Z,44.75
2022-09-27T01:41:14.435Z,44.69
2022-09-27T01:44:31.495Z,44.76
2022-09-27T01:47:19.301Z,44.40
2022-09-27T01:50:33.452Z,44.62
2022-09-27T01:53:08.109Z,44.26
2022-09-27T01:55:50.059Z,44.42
2022-09-27T01:59:11.565Z,44.51
2022-09-27T02:01:49.431Z,44.55
2022-09-27T02:04:24.613Z,44.65
2022-09-27T02:07:33.646Z,44.75
2022-09-27T02:10:17.203Z,45.02
2022-09-27T02:13:04.132Z,44.94
2022-09-27T02:15:47.713Z,45.25
2022-09-27T02:19:18.781Z,45.26
2022-09-27T02:22:15.114Z,45.30
2022-09-27T02:24:57.650Z,45.51
2022-09-27T02:28:02.077Z,45.63
2022-09-27T02:30:34.381Z,45.97
2022-09-27T02:33:14.945Z,46.26
2022-09-27T02:35:42.645Z,46.30
2022-09-27T02:38:10.808Z,46.12
2022-09-27T02:40:46.975Z,46.20
2022-09-27T02:43:17.930Z,46.37
2022-09-27T02:46:31.816Z,46.50
2022-09-27T02:49:50.453Z,46.57
2022-09-27T02:52:49.282Z,46.57
2022-09-27T02:55:39.989Z,46.92
2022-09-27T02:58:53.283Z,46.91
2022-09-27T03:01:45.376Z,47.01
2022-09-27T03:04:48.292Z,47.24
2022-09-27T03:07:16.634Z,47.26
2022-09-27T03:09:50.011Z,47.48
2022-09-27T03:12:28.446Z,47.96
2022-09-27T03:14:58.933Z,48.42
2022-09-27T03:17:52.445Z,48.76
2022-09-27T03:20:34.748Z,49.12
2022-09-27T03:23:08.739Z,49.85
2022-09-27T03:25:36.044Z,49.89
2022-09-27T03:28:04.215Z,50.19
2022-09-27T03:30:32.499Z,50.66
2022-09-27T03:32:59.660Z,50.90
2022-09-27T03:35:48.057Z,51.64
2022-09-27T03:38:16.067Z,51.22
2022-09-27T03:40:44.400Z,51.16
2022-09-27T03:43:12.008Z,51.79
2022-09-27T03:45:39.275Z,51.80
2022-09-27T03:48:09.680Z,52.13
2022-09-27T03:50:37.046Z,52.74
2022-09-27T03:53:04.884Z,53.13
2022-09-27T03:55:32.432Z,53.19
2022-09-27T03:57:59.753Z,53.41
2022-09-27T04:00:27.468Z,53.65
2022-09-27T04:02:56.097Z,53.92
2022-09-27T04:05:25.534Z,53.97
2022-09-27T04:08:13.689Z,54.15
2022-09-27T04:10:43.260Z,54.46
2022-09-27T04:13:10.413Z,54.41
2022-09-27T04:15:52.556Z,54.32
2022-09-27T04:18:31.814Z,54.91
2022-09-27T04:21:22.861Z,54.79
2022-09-27T04:23:52.473Z,54.71
2022-09-27T04:26:23.191Z,54.70
2022-09-27T04:29:10.788Z,54.59
2022-09-27T04:31:41.858Z,55.22
2022-09-27T04:34:46.319Z,55.73
2022-09-27T04:37:20.618Z,55.20
2022-09-27T04:39:49.712Z,55.38
2022-09-27T04:42:17.842Z,55.62
2022-09-27T04:44:45.288Z,56.02
2022-09-27T04:47:12.770Z,56.36
2022-09-27T04:49:41.652Z,56.28
2022-09-27T04:52:09.297Z,56.11
2022-09-27T04:54:36.523Z,56.36
2022-09-27T04:57:12.250Z,56.43
2022-09-27T04:59:41.616Z,56.33
2022-09-27T05:02:09.628Z,56.55
2022-09-27T05:04:59.966Z,56.02
2022-09-27T05:07:35.690Z,56.54
2022-09-27T05:10:09.028Z,56.94
2022-09-27T05:12:36.756Z,56.62
2022-09-27T05:15:05.567Z,56.56
2022-09-27T05:17:38.356Z,57.12
2022-09-27T05:20:25.614Z,57.08
2022-09-27T05:22:55.948Z,57.18
2022-09-27T05:25:23.191Z,57.39
2022-09-27T05:27:51.797Z,57.55
2022-09-27T05:30:20.208Z,57.00
2022-09-27T05:32:51.448Z,56.74
2022-09-27T05:35:47.582Z,55.24
2022-09-27T05:38:14.964Z,55.08
2022-09-27T05:40:47.952Z,55.82
2022-09-27T05:43:16.547Z,54.83
2022-09-27T05:45:44.924Z,54.08
2022-09-27T05:48:14.680Z,53.58
2022-09-27T05:51:04.447Z,53.72
2022-09-27T05:53:32.623Z,54.48
2022-09-27T05:56:04.205Z,53.69
2022-09-27T05:58:50.264Z,52.63
2022-09-27T06:01:19.531Z,52.52
2022-09-27T06:04:06.721Z,52.47
2022-09-27T06:06:59.085Z,52.76
2022-09-27T06:09:27.477Z,52.65
2022-09-27T06:11:56.863Z,51.72
2022-09-27T06:14:24.616Z,51.93
2022-09-27T06:17:12.066Z,51.00
2022-09-27T06:19:44.094Z,50.97
2022-09-27T06:22:12.670Z,50.95
2022-09-27T06:24:51.472Z,51.35
2022-09-27T06:27:23.282Z,51.82
2022-09-27T06:30:20.184Z,51.72
2022-09-27T06:33:00.592Z,52.07
2022-09-27T06:35:35.097Z,51.69
2022-09-27T06:38:09.158Z,51.73
2022-09-27T06:40:39.454Z,51.33
2022-09-27T06:43:20.588Z,50.86
2022-09-27T06:46:07.800Z,50.02
2022-09-27T06:48:48.179Z,50.86
2022-09-27T06:51:16.873Z,50.66
2022-09-27T06:53:44.231Z,50.62
2022-09-27T06:56:11.385Z,49.72
2022-09-27T06:59:06.269Z,49.18
2022-09-27T07:01:56.767Z,49.64
2022-09-27T07:04:25.508Z,49.58
2022-09-27T07:07:02.967Z,48.64
2022-09-27T07:09:37.994Z,49.11
2022-09-27T07:12:06.373Z,49.10
2022-09-27T07:14:34.658Z,48.67
2022-09-27T07:17:02.941Z,48.19
2022-09-27T07:19:42.783Z,48.42
2022-09-27T07:22:11.353Z,47.73
2022-09-27T07:24:40.286Z,47.72
2022-09-27T07:27:07.822Z,48.20
2022-09-27T07:29:35.074Z,47.65
2022-09-27T07:32:03.346Z,46.90
2022-09-27T07:34:30.811Z,46.22
2022-09-27T07:37:01.746Z,46.77
2022-09-27T07:39:30.631Z,46.05
2022-09-27T07:41:58.709Z,47.05
2022-09-27T07:44:27.244Z,46.68
2022-09-27T07:47:11.059Z,46.61
2022-09-27T07:49:57.258Z,46.00
2022-09-27T07:52:46.093Z,45.96
2022-09-27T07:55:34.671Z,46.63
2022-09-27T07:58:13.046Z,46.82
2022-09-27T08:00:41.262Z,45.97
2022-09-27T08:03:17.551Z,46.21
2022-09-27T08:05:48.053Z,46.54
2022-09-27T08:08:16.993Z,45.89
2022-09-27T08:10:46.719Z,46.05
2022-09-27T08:13:20.024Z,46.18
2022-09-27T08:15:48.814Z,45.64
2022-09-27T08:18:17.677Z,45.47
2022-09-27T08:21:07.788Z,45.97
2022-09-27T08:24:04.171Z,46.54
2022-09-27T08:26:37.566Z,46.25
2022-09-27T08:29:13.946Z,45.64
2022-09-27T08:31:52.368Z,45.22
2022-09-27T08:34:20.665Z,45.75
2022-09-27T08:36:48.003Z,46.30
2022-09-27T08:39:15.776Z,46.59
2022-09-27T08:42:17.776Z,45.69
2022-09-27T08:45:04.906Z,45.00
2022-09-27T08:47:43.103Z,44.78
2022-09-27T08:50:29.924Z,44.39
2022-09-27T08:53:24.912Z,44.33
2022-09-27T08:55:59.341Z,44.60
2022-09-27T08:59:22.058Z,44.92
2022-09-27T09:01:52.017Z,44.06
2022-09-27T09:04:37.645Z,43.59
2022-09-27T09:07:28.909Z,43.96
2022-09-27T09:10:37.754Z,43.50
2022-09-27T09:13:42.096Z,45.16
2022-09-27T09:16:39.880Z,47.08
2022-09-27T09:19:45.188Z,47.33
2022-09-27T09:23:06.550Z,47.91
2022-09-27T09:26:22.097Z,48.09
2022-09-27T09:29:21.795Z,47.35
2022-09-27T09:32:17.954Z,45.71
2022-09-27T09:35:01.053Z,45.58
2022-09-27T09:37:46.348Z,45.64
2022-09-27T09:40:27.002Z,46.51
2022-09-27T09:43:05.992Z,46.52
2022-09-27T09:46:17.552Z,47.15
2022-09-27T09:49:20.555Z,47.63
2022-09-27T09:52:04.125Z,47.71
2022-09-27T09:54:47.421Z,47.66
2022-09-27T09:57:21.028Z,46.96
2022-09-27T10:00:00.429Z,45.62
2022-09-27T10:02:44.086Z,45.29
2022-09-27T10:05:19.170Z,46.07
2022-09-27T10:07:50.813Z,44.71
2022-09-27T10:10:20.681Z,44.00
2022-09-27T10:12:53.855Z,43.70
2022-09-27T10:15:29.402Z,42.85
2022-09-27T10:17:59.423Z,42.85
2022-09-27T10:20:45.668Z,42.79
2022-09-27T10:23:21.300Z,43.12
2022-09-27T10:26:10.375Z,42.49
2022-09-27T10:28:46.095Z,42.52
2022-09-27T10:31:18.646Z,41.87
2022-09-27T10:34:06.574Z,42.47
2022-09-27T10:36:41.082Z,43.39
2022-09-27T10:39:23.910Z,44.98
2022-09-27T10:41:52.390Z,46.62
2022-09-27T10:44:45.855Z,46.69
2022-09-27T10:47:25.454Z,46.43
2022-09-27T10:50:45.737Z,46.83
2022-09-27T10:53:22.483Z,46.14
2022-09-27T10:55:59.374Z,46.14
2022-09-27T10:58:34.397Z,45.59
2022-09-27T11:01:08.562Z,45.71
2022-09-27T11:04:00.461Z,45.00
2022-09-27T11:06:33.408Z,44.31
2022-09-27T11:09:18.992Z,44.09
2022-09-27T11:11:48.894Z,44.73
2022-09-27T11:14:24.751Z,47.49
2022-09-27T11:17:13.787Z,48.02
2022-09-27T11:20:28.672Z,47.88
2022-09-27T11:23:27.162Z,47.58
2022-09-27T11:26:14.759Z,47.62
2022-09-27T11:29:07.917Z,46.98
2022-09-27T11:33:02.982Z,47.12
2022-09-27T11:35:53.350Z,46.88
2022-09-27T11:39:06.444Z,48.29
2022-09-27T11:41:40.195Z,49.11
2022-09-27T11:44:43.093Z,48.86
2022-09-27T11:47:57.626Z,48.23
2022-09-27T11:51:00.279Z,46.66
2022-09-27T11:53:36.611Z,44.24
2022-09-27T11:57:01.931Z,43.04
2022-09-27T11:59:52.703Z,40.69
2022-09-27T12:03:02.747Z,40.34
2022-09-27T12:05:57.414Z,42.02
2022-09-27T12:09:10.420Z,43.94
2022-09-27T12:12:04.974Z,45.29
2022-09-27T12:14:48.440Z,45.85
2022-09-27T12:17:50.569Z,46.48
2022-09-27T12:20:34.376Z,46.00
2022-09-27T12:23:25.778Z,46.45
2022-09-27T12:26:25.748Z,47.87
2022-09-27T12:29:19.286Z,49.09
2022-09-27T12:32:26.058Z,42.90
2022-09-27T12:35:14.169Z,40.24
2022-09-27T12:38:03.629Z,40.12
2022-09-27T12:40:40.660Z,35.79
2022-09-27T12:43:19.328Z,36.11
2022-09-27T12:46:18.635Z,36.79
2022-09-27T12:48:51.862Z,39.40
2022-09-27T12:51:23.781Z,41.56
2022-09-27T12:54:13.805Z,43.77
2022-09-27T12:57:18.160Z,45.81
2022-09-27T13:00:21.416Z,46.15
2022-09-27T13:03:32.387Z,38.82
2022-09-27T13:06:12.008Z,33.68
2022-09-27T13:09:17.496Z,33.35
2022-09-27T13:12:11.142Z,32.70
2022-09-27T13:14:56.482Z,32.66
2022-09-27T13:17:43.473Z,32.41
2022-09-27T13:20:39.363Z,33.26
2022-09-27T13:23:32.411Z,32.30
2022-09-27T13:26:24.251Z,29.91
2022-09-27T13:29:03.583Z,30.17
2022-09-27T13:31:57.859Z,28.71
2022-09-27T13:34:53.843Z,30.49
2022-09-27T13:37:46.895Z,33.83
2022-09-27T13:40:27.815Z,35.39
2022-09-27T13:44:41.569Z,34.88
2022-09-27T13:47:30.502Z,34.89
2022-09-27T13:50:56.404Z,34.24
2022-09-27T13:53:40.527Z,31.33
2022-09-27T13:56:38.034Z,32.66
2022-09-27T13:59:25.864Z,29.88
2022-09-27T14:02:26.016Z,29.19
2022-09-27T14:04:56.560Z,28.87
2022-09-27T14:07:35.004Z,30.10
2022-09-27T14:10:04.495Z,31.13
2022-09-27T14:12:40.492Z,33.58
2022-09-27T14:15:23.221Z,35.67
2022-09-27T14:17:53.050Z,37.05
2022-09-27T14:21:09.681Z,39.31
2022-09-27T14:24:38.332Z,40.59
2022-09-27T14:27:25.269Z,42.59
2022-09-27T14:30:20.072Z,44.02
2022-09-27T14:33:01.658Z,44.26
2022-09-27T14:36:07.883Z,45.20
2022-09-27T14:38:38.471Z,46.05
2022-09-27T14:41:15.731Z,46.51
2022-09-27T14:43:46.521Z,45.44
2022-09-27T14:46:32.263Z,44.27
2022-09-27T14:49:13.991Z,43.29
2022-09-27T14:51:41.403Z,43.43
2022-09-27T14:54:26.572Z,43.46
2022-09-27T14:56:56.325Z,43.89
2022-09-27T14:59:34.646Z,44.35
2022-09-27T15:02:15.226Z,44.18
2022-09-27T15:04:46.988Z,45.19
2022-09-27T15:07:17.135Z,46.00
2022-09-27T15:09:45.522Z,46.26
2022-09-27T15:12:22.924Z,47.04
2022-09-27T15:14:54.137Z,47.78
2022-09-27T15:17:22.416Z,47.97
2022-09-27T15:20:22.065Z,47.64
2022-09-27T15:22:49.195Z,47.33
2022-09-27T15:25:22.618Z,47.26
2022-09-27T15:27:56.492Z,47.64
2022-09-27T15:31:08.042Z,47.99
2022-09-27T15:33:35.916Z,48.34
2022-09-27T15:36:09.388Z,48.38
2022-09-27T15:38:48.832Z,48.67
2022-09-27T15:41:18.724Z,48.88
2022-09-27T15:43:52.599Z,48.67
2022-09-27T15:46:23.017Z,48.38
2022-09-27T15:49:23.045Z,48.03
2022-09-27T15:51:56.794Z,48.14
2022-09-27T15:54:30.765Z,47.67
2022-09-27T15:57:04.512Z,47.33
2022-09-27T15:59:35.614Z,47.19
2022-09-27T16:02:22.910Z,47.14
2022-09-27T16:04:50.102Z,47.39
2022-09-27T16:07:17.106Z,46.92
2022-09-27T16:09:45.131Z,46.96
2022-09-27T16:12:12.189Z,47.02
2022-09-27T16:14:39.166Z,46.92
2022-09-27T16:17:06.171Z,47.17
2022-09-27T16:19:33.197Z,47.93
2022-09-27T16:22:03.510Z,47.97
2022-09-27T16:24:31.532Z,47.66
2022-09-27T16:26:59.580Z,48.16
2022-09-27T16:29:26.701Z,48.63
2022-09-27T16:31:54.070Z,48.92
2022-09-27T16:34:21.372Z,49.71
2022-09-27T16:36:50.308Z,50.92
2022-09-27T16:39:17.720Z,52.66
2022-09-27T16:41:47.059Z,53.39
2022-09-27T16:44:17.619Z,54.28
2022-09-27T16:46:48.042Z,54.57
2022-09-27T16:49:33.639Z,54.53
2022-09-27T16:52:01.013Z,54.72
2022-09-27T16:54:29.726Z,54.53
2022-09-27T16:56:58.838Z,55.27
2022-09-27T16:59:29.657Z,55.51
2022-09-27T17:01:57.471Z,56.33
2022-09-27T17:04:28.951Z,56.66
2022-09-27T17:06:57.242Z,56.72
2022-09-27T17:09:27.023Z,56.80
2022-09-27T17:11:55.376Z,56.98
2022-09-27T17:14:22.614Z,57.23
2022-09-27T17:16:50.575Z,57.44
2022-09-27T17:19:18.503Z,57.76
2022-09-27T17:21:48.527Z,57.96
2022-09-27T17:24:16.270Z,58.68
2022-09-27T17:26:44.194Z,59.32
2022-09-27T17:29:12.857Z,59.42
2022-09-27T17:31:41.698Z,59.85
2022-09-27T17:34:15.590Z,59.91
2022-09-27T17:36:48.342Z,59.69
2022-09-27T17:39:19.097Z,59.98
2022-09-27T17:41:46.351Z,59.80
2022-09-27T17:44:16.250Z,59.34
2022-09-27T17:46:43.538Z,59.04
2022-09-27T17:49:30.880Z,58.22
2022-09-27T17:51:58.277Z,58.20
2022-09-27T17:54:28.285Z,57.74
2022-09-27T17:56:56.547Z,57.06
2022-09-27T17:59:23.973Z,57.52
2022-09-27T18:01:51.198Z,57.13
2022-09-27T18:04:19.882Z,57.32
2022-09-27T18:06:47.871Z,57.79
2022-09-27T18:09:16.911Z,58.06
2022-09-27T18:11:45.363Z,57.61
2022-09-27T18:14:12.645Z,57.47
2022-09-27T18:16:44.232Z,57.01
2022-09-27T18:19:16.402Z,57.66
2022-09-27T18:21:44.180Z,58.11
2022-09-27T18:24:11.802Z,58.28
2022-09-27T18:26:40.177Z,57.86
2022-09-27T18:29:14.232Z,57.42
2022-09-27T18:31:47.488Z,57.03
2022-09-27T18:34:17.691Z,56.86
2022-09-27T18:36:45.164Z,56.25
2022-09-27T18:39:21.126Z,56.37
2022-09-27T18:41:49.280Z,56.29
2022-09-27T18:44:18.239Z,56.16
2022-09-27T18:46:45.929Z,56.02
2022-09-27T18:49:15.109Z,55.30
2022-09-27T18:51:44.809Z,55.27
2022-09-27T18:54:22.280Z,55.62
2022-09-27T18:56:52.193Z,55.50
2022-09-27T18:59:21.299Z,56.30
2022-09-27T19:01:48.560Z,56.17
2022-09-27T19:04:24.298Z,56.38
2022-09-27T19:06:53.667Z,56.73
2022-09-27T19:09:21.304Z,56.90
2022-09-27T19:11:48.577Z,57.05
2022-09-27T19:14:18.749Z,56.87
2022-09-27T19:16:47.523Z,57.01
2022-09-27T19:19:17.112Z,57.30
2022-09-27T19:21:44.795Z,57.72
2022-09-27T19:24:13.997Z,57.54
2022-09-27T19:26:41.943Z,57.29
2022-09-27T19:29:09.171Z,57.23
2022-09-27T19:31:36.448Z,56.65
2022-09-27T19:34:04.131Z,57.22
2022-09-27T19:36:31.728Z,56.82
2022-09-27T19:38:59.971Z,56.54
2022-09-27T19:41:27.507Z,56.52
2022-09-27T19:43:56.134Z,56.49
2022-09-27T19:46:24.966Z,56.66
2022-09-27T19:48:53.287Z,57.08
2022-09-27T19:51:24.713Z,57.26
2022-09-27T19:53:53.666Z,57.37
2022-09-27T19:56:22.147Z,57.43
2022-09-27T19:58:50.220Z,57.50
2022-09-27T20:01:23.620Z,57.18
2022-09-27T20:03:53.507Z,57.52
2022-09-27T20:06:21.823Z,57.87
2022-09-27T20:08:49.532Z,57.63
2022-09-27T20:11:23.437Z,57.18
2022-09-27T20:13:54.485Z,57.14
2022-09-27T20:16:24.444Z,57.26
2022-09-27T20:18:57.676Z,57.48
2022-09-27T20:21:29.032Z,57.47
2022-09-27T20:23:57.431Z,57.29
2022-09-27T20:26:27.179Z,57.27
2022-09-27T20:29:00.443Z,57.74
2022-09-27T20:31:36.897Z,57.91
2022-09-27T20:34:07.328Z,58.27
2022-09-27T20:36:37.436Z,58.30
2022-09-27T20:39:07.993Z,58.14
2022-09-27T20:41:45.801Z,58.39
2022-09-27T20:44:16.954Z,58.70
2022-09-27T20:46:45.621Z,58.69
2022-09-27T20:49:19.660Z,58.97
2022-09-27T20:51:51.464Z,59.18
2022-09-27T20:54:18.975Z,58.93
2022-09-27T20:56:48.529Z,58.87
2022-09-27T20:59:21.905Z,59.26
2022-09-27T21:01:51.898Z,59.41
2022-09-27T21:04:21.671Z,59.20
2022-09-27T21:06:48.894Z,59.31
2022-09-27T21:09:18.961Z,58.98
2022-09-27T21:11:52.101Z,59.11
2022-09-27T21:14:19.616Z,59.47
2022-09-27T21:16:46.919Z,59.73
2022-09-27T21:19:14.373Z,59.86
2022-09-27T21:21:41.619Z,59.63
2022-09-27T21:24:08.779Z,59.19
2022-09-27T21:26:36.089Z,59.20
2022-09-27T21:29:08.543Z,59.12
2022-09-27T21:31:36.372Z,58.93
2022-09-27T21:34:05.667Z,59.04
2022-09-27T21:36:36.232Z,58.87
2022-09-27T21:39:08.517Z,58.90
2022-09-27T21:41:36.891Z,58.93
2022-09-27T21:44:06.091Z,58.88
2022-09-27T21:46:33.577Z,59.20
2022-09-27T21:49:02.168Z,59.50
2022-09-27T21:51:33.232Z,59.49
2022-09-27T21:54:03.170Z,59.33
2022-09-27T21:56:33.680Z,59.49
2022-09-27T21:59:01.855Z,59.41
2022-09-27T22:01:34.445Z,59.34
2022-09-27T22:04:04.650Z,59.15
2022-09-27T22:06:36.212Z,59.02
2022-09-27T22:09:06.937Z,59.23
2022-09-27T22:11:42.735Z,59.31
2022-09-27T22:14:16.187Z,59.11
2022-09-27T22:16:43.480Z,59.20
2022-09-27T22:19:13.655Z,58.94
2022-09-27T22:21:41.565Z,58.68
2022-09-27T22:24:17.007Z,58.98
2022-09-27T22:26:49.767Z,59.06
2022-09-27T22:29:17.231Z,59.02
2022-09-27T22:31:44.899Z,59.05
2022-09-27T22:34:18.396Z,58.72
2022-09-27T22:36:45.947Z,58.91
2022-09-27T22:39:13.489Z,58.50
2022-09-27T22:41:40.676Z,58.20
2022-09-27T22:44:08.614Z,58.14
2022-09-27T22:46:35.794Z,58.70
2022-09-27T22:49:02.964Z,58.38
2022-09-27T22:51:30.238Z,58.28
2022-09-27T22:53:57.458Z,58.30
2022-09-27T22:56:24.575Z,58.19
2022-09-27T22:58:51.757Z,58.14
2022-09-27T23:01:27.712Z,57.82
2022-09-27T23:03:55.810Z,57.77
2022-09-27T23:06:23.381Z,57.90
2022-09-27T23:08:51.644Z,57.78
2022-09-27T23:11:22.318Z,57.70
2022-09-27T23:13:50.938Z,57.74
2022-09-27T23:16:25.711Z,57.75
2022-09-27T23:18:54.910Z,57.67
2022-09-27T23:21:24.686Z,57.55
2022-09-27T23:23:55.173Z,57.48
2022-09-27T23:26:26.178Z,57.41
2022-09-27T23:28:59.478Z,57.19
2022-09-27T23:31:29.875Z,57.00
2022-09-27T23:33:59.306Z,56.81
2022-09-27T23:36:27.598Z,56.48
2022-09-27T23:39:00.303Z,56.22
2022-09-27T23:41:27.579Z,55.89
2022-09-27T23:43:54.727Z,55.84
2022-09-27T23:46:21.950Z,55.75
2022-09-27T23:48:49.084Z,55.75
2022-09-27T23:51:16.216Z,55.76
2022-09-27T23:53:44.573Z,55.76
2022-09-27T23:56:17.240Z,55.72
2022-09-27T23:58:46.471Z,55.37
